sensor_id;sensor_type;location;lat;lon;timestamp;pressure;altitude;pressure_sealevel;temperature;humidity
32452;BME280;45528;52.102;5.242;2023-02-13T00:00:18;103391.00000000001;;;14.61;50.06
32452;BME280;45528;52.102;5.242;2023-02-13T00:03:32;103391.00000000001;;;14.59;50.59
32452;BME280;45528;52.102;5.242;2023-02-13T00:05:09;103392.0;;;14.5;50.72
32452;BME280;45528;52.102;5.242;2023-02-13T00:06:47;103389.00000000001;;;14.47;50.64
32452;BME280;45528;52.102;5.242;2023-02-13T00:10:00;103384.99999999999;;;14.28;50.94
32452;BME280;45528;52.102;5.242;2023-02-13T00:11:37;103384.99999999999;;;14.44;50.77
32452;BME280;45528;52.102;5.242;2023-02-13T00:13:15;103384.99999999999;;;14.41;50.68
32452;BME280;45528;52.102;5.242;2023-02-13T00:14:51;103390.00000000001;;;14.39;50.77
32452;BME280;45528;52.102;5.242;2023-02-13T00:18:05;103389.00000000001;;;14.55;50.37
32452;BME280;45528;52.102;5.242;2023-02-13T00:19:42;103389.00000000001;;;14.61;50.33
32452;BME280;45528;52.102;5.242;2023-02-13T00:21:19;103380.0;;;14.42;51.01
32452;BME280;45528;52.102;5.242;2023-02-13T00:24:33;103376.0;;;14.47;50.66
32452;BME280;45528;52.102;5.242;2023-02-13T00:26:11;103377.0;;;14.39;50.63
32452;BME280;45528;52.102;5.242;2023-02-13T00:27:51;103377.0;;;14.36;50.89
32452;BME280;45528;52.102;5.242;2023-02-13T00:29:29;103375.0;;;14.4;50.63
32452;BME280;45528;52.102;5.242;2023-02-13T00:32:44;103375.0;;;14.39;51.06
32452;BME280;45528;52.102;5.242;2023-02-13T00:34:21;103368.0;;;14.16;51.02
32452;BME280;45528;52.102;5.242;2023-02-13T00:36:02;103370.0;;;14.37;50.54
32452;BME280;45528;52.102;5.242;2023-02-13T00:39:17;103368.0;;;14.35;50.86
32452;BME280;45528;52.102;5.242;2023-02-13T00:40:54;103372.0;;;14.4;51.16
32452;BME280;45528;52.102;5.242;2023-02-13T00:42:30;103367.0;;;14.18;51.34
32452;BME280;45528;52.102;5.242;2023-02-13T00:44:08;103369.0;;;14.03;51.4
32452;BME280;45528;52.102;5.242;2023-02-13T00:47:21;103371.0;;;14.33;50.86
32452;BME280;45528;52.102;5.242;2023-02-13T00:48:57;103372.0;;;14.4;50.61
32452;BME280;45528;52.102;5.242;2023-02-13T00:50:34;103374.0;;;14.42;50.87
32452;BME280;45528;52.102;5.242;2023-02-13T00:53:47;103371.0;;;14.35;51.06
32452;BME280;45528;52.102;5.242;2023-02-13T00:55:25;103367.0;;;14.53;50.16
32452;BME280;45528;52.102;5.242;2023-02-13T00:57:02;103363.00000000001;;;14.5;50.59
32452;BME280;45528;52.102;5.242;2023-02-13T01:00:16;103361.99999999999;;;14.51;50.35
32452;BME280;45528;52.102;5.242;2023-02-13T01:01:52;103365.00000000001;;;14.52;50.35
32452;BME280;45528;52.102;5.242;2023-02-13T01:03:29;103364.00000000001;;;14.45;50.71
32452;BME280;45528;52.102;5.242;2023-02-13T01:05:07;103367.0;;;14.53;50.95
32452;BME280;45528;52.102;5.242;2023-02-13T01:08:20;103365.00000000001;;;14.59;50.43
32452;BME280;45528;52.102;5.242;2023-02-13T01:09:56;103368.0;;;14.5;50.46
32452;BME280;45528;52.102;5.242;2023-02-13T01:11:33;103368.0;;;14.46;50.46
32452;BME280;45528;52.102;5.242;2023-02-13T01:14:48;103367.0;;;14.45;50.49
32452;BME280;45528;52.102;5.242;2023-02-13T01:16:26;103369.0;;;14.56;50.63
32452;BME280;45528;52.102;5.242;2023-02-13T01:18:03;103367.0;;;14.43;50.7
32452;BME280;45528;52.102;5.242;2023-02-13T01:19:40;103366.00000000001;;;14.54;50.71
32452;BME280;45528;52.102;5.242;2023-02-13T01:22:56;103367.0;;;14.63;50.11
32452;BME280;45528;52.102;5.242;2023-02-13T01:24:33;103364.00000000001;;;14.47;50.32
32452;BME280;45528;52.102;5.242;2023-02-13T01:26:15;103366.00000000001;;;14.45;50.63
32452;BME280;45528;52.102;5.242;2023-02-13T01:29:30;103364.00000000001;;;14.25;51.04
32452;BME280;45528;52.102;5.242;2023-02-13T01:31:07;103358.0;;;14.11;51.12
32452;BME280;45528;52.102;5.242;2023-02-13T01:32:45;103355.0;;;14.36;50.73
32452;BME280;45528;52.102;5.242;2023-02-13T01:34:23;103353.0;;;14.34;50.5
32452;BME280;45528;52.102;5.242;2023-02-13T01:37:42;103349.0;;;14.56;50.55
32452;BME280;45528;52.102;5.242;2023-02-13T01:39:19;103353.0;;;14.32;50.75
32452;BME280;45528;52.102;5.242;2023-02-13T01:40:55;103353.0;;;14.32;50.8
32452;BME280;45528;52.102;5.242;2023-02-13T01:45:22;103354.0;;;13.92;52.08
32452;BME280;45528;52.102;5.242;2023-02-13T01:47:07;103352.0;;;14.24;51.1
32452;BME280;45528;52.102;5.242;2023-02-13T01:50:27;103352.0;;;14.31;50.99
32452;BME280;45528;52.102;5.242;2023-02-13T01:52:08;103344.0;;;14.13;51.18
32452;BME280;45528;52.102;5.242;2023-02-13T01:53:48;103346.0;;;14.32;50.91
32452;BME280;45528;52.102;5.242;2023-02-13T01:55:28;103346.0;;;14.28;51.08
32452;BME280;45528;52.102;5.242;2023-02-13T01:58:53;103345.0;;;14.23;51.31
32452;BME280;45528;52.102;5.242;2023-02-13T02:00:35;103338.00000000001;;;14.0;51.5
32452;BME280;45528;52.102;5.242;2023-02-13T02:02:14;103343.0;;;14.3;51.27
32452;BME280;45528;52.102;5.242;2023-02-13T02:03:54;103347.0;;;14.37;51.11
32452;BME280;45528;52.102;5.242;2023-02-13T02:07:14;103343.0;;;14.26;51.06
32452;BME280;45528;52.102;5.242;2023-02-13T02:08:59;103342.0;;;14.19;51.18
32452;BME280;45528;52.102;5.242;2023-02-13T02:10:40;103340.00000000001;;;13.95;52.28
32452;BME280;45528;52.102;5.242;2023-02-13T02:12:23;103338.00000000001;;;13.61;52.58
32452;BME280;45528;52.102;5.242;2023-02-13T02:15:39;103333.99999999999;;;13.57;52.53
32452;BME280;45528;52.102;5.242;2023-02-13T02:17:18;103333.99999999999;;;13.89;52.14
32452;BME280;45528;52.102;5.242;2023-02-13T02:18:57;103333.0;;;13.98;51.78
32452;BME280;45528;52.102;5.242;2023-02-13T02:20:54;103334.99999999999;;;14.1;51.77
32452;BME280;45528;52.102;5.242;2023-02-13T02:23:46;103340.00000000001;;;14.11;51.32
32452;BME280;45528;52.102;5.242;2023-02-13T02:32:12;103333.0;;;13.97;51.33
32452;BME280;45528;52.102;5.242;2023-02-13T02:34:20;103338.00000000001;;;14.17;51.46
32452;BME280;45528;52.102;5.242;2023-02-13T02:36:13;103330.0;;;14.01;51.51
32452;BME280;45528;52.102;5.242;2023-02-13T02:38:18;103332.0;;;14.1;51.38
32452;BME280;45528;52.102;5.242;2023-02-13T02:40:19;103333.99999999999;;;14.21;51.08
32452;BME280;45528;52.102;5.242;2023-02-13T02:42:06;103333.99999999999;;;14.18;51.32
32452;BME280;45528;52.102;5.242;2023-02-13T02:43:59;103328.0;;;14.09;51.35
32452;BME280;45528;52.102;5.242;2023-02-13T02:45:45;103330.0;;;14.23;51.04
32452;BME280;45528;52.102;5.242;2023-02-13T02:50:13;103330.0;;;14.27;51.11
32452;BME280;45528;52.102;5.242;2023-02-13T02:51:56;103327.0;;;14.32;51.06
32452;BME280;45528;52.102;5.242;2023-02-13T02:55:34;103321.0;;;14.39;50.94
32452;BME280;45528;52.102;5.242;2023-02-13T02:57:15;103325.0;;;14.28;51.08
32452;BME280;45528;52.102;5.242;2023-02-13T03:07:17;103319.0;;;14.19;51.46
32452;BME280;45528;52.102;5.242;2023-02-13T03:13:33;103321.0;;;14.11;51.79
32452;BME280;45528;52.102;5.242;2023-02-13T03:15:16;103321.0;;;14.2;51.53
32452;BME280;45528;52.102;5.242;2023-02-13T03:22:29;103322.0;;;14.14;51.5
32452;BME280;45528;52.102;5.242;2023-02-13T03:24:19;103325.0;;;14.27;51.4
32452;BME280;45528;52.102;5.242;2023-02-13T03:26:18;103329.0;;;14.27;51.48
32452;BME280;45528;52.102;5.242;2023-02-13T03:30:39;103330.0;;;14.27;51.45
32452;BME280;45528;52.102;5.242;2023-02-13T03:32:37;103330.0;;;14.28;51.45
32452;BME280;45528;52.102;5.242;2023-02-13T03:34:23;103333.0;;;14.41;51.42
32452;BME280;45528;52.102;5.242;2023-02-13T03:38:28;103331.0;;;14.29;51.29
32452;BME280;45528;52.102;5.242;2023-02-13T03:40:13;103329.0;;;14.31;51.44
32452;BME280;45528;52.102;5.242;2023-02-13T03:43:39;103326.0;;;14.2;51.71
32452;BME280;45528;52.102;5.242;2023-02-13T03:45:52;103325.0;;;14.32;51.37
32452;BME280;45528;52.102;5.242;2023-02-13T03:47:31;103325.0;;;14.29;51.25
32452;BME280;45528;52.102;5.242;2023-02-13T03:50:14;103320.0;;;14.39;51.17
32452;BME280;45528;52.102;5.242;2023-02-13T03:51:55;103323.0;;;14.36;51.57
32452;BME280;45528;52.102;5.242;2023-02-13T03:53:35;103325.0;;;14.33;51.31
32452;BME280;45528;52.102;5.242;2023-02-13T03:59:27;103323.0;;;14.18;51.68
32452;BME280;45528;52.102;5.242;2023-02-13T04:01:07;103319.0;;;14.07;51.85
32452;BME280;45528;52.102;5.242;2023-02-13T04:04:39;103321.0;;;14.17;52.26
32452;BME280;45528;52.102;5.242;2023-02-13T04:06:21;103317.0;;;14.0;52.53
32452;BME280;45528;52.102;5.242;2023-02-13T04:08:02;103314.00000000001;;;14.09;51.94
32452;BME280;45528;52.102;5.242;2023-02-13T04:09:41;103316.00000000001;;;14.05;52.16
32452;BME280;45528;52.102;5.242;2023-02-13T04:11:24;103317.0;;;14.08;52.25
32452;BME280;45528;52.102;5.242;2023-02-13T04:14:56;103317.0;;;14.23;52.16
32452;BME280;45528;52.102;5.242;2023-02-13T04:16:36;103317.0;;;14.12;52.04
32452;BME280;45528;52.102;5.242;2023-02-13T04:18:18;103314.00000000001;;;14.18;51.97
32452;BME280;45528;52.102;5.242;2023-02-13T04:19:57;103313.00000000001;;;14.15;52.06
32452;BME280;45528;52.102;5.242;2023-02-13T04:23:14;103308.0;;;14.12;52.11
32452;BME280;45528;52.102;5.242;2023-02-13T04:24:52;103311.99999999999;;;14.14;52.14
32452;BME280;45528;52.102;5.242;2023-02-13T04:26:33;103316.00000000001;;;14.12;52.34
32452;BME280;45528;52.102;5.242;2023-02-13T04:28:11;103316.00000000001;;;14.05;52.38
32452;BME280;45528;52.102;5.242;2023-02-13T04:31:23;103316.00000000001;;;14.12;52.17
32452;BME280;45528;52.102;5.242;2023-02-13T04:32:59;103316.00000000001;;;14.14;52.15
32452;BME280;45528;52.102;5.242;2023-02-13T04:34:36;103318.0;;;14.1;52.38
32452;BME280;45528;52.102;5.242;2023-02-13T04:37:49;103317.0;;;14.12;52.27
32452;BME280;45528;52.102;5.242;2023-02-13T04:39:25;103318.0;;;14.14;52.58
32452;BME280;45528;52.102;5.242;2023-02-13T04:41:01;103309.99999999999;;;13.92;52.84
32452;BME280;45528;52.102;5.242;2023-02-13T04:42:37;103309.99999999999;;;13.93;52.91
32452;BME280;45528;52.102;5.242;2023-02-13T04:45:50;103311.99999999999;;;14.06;52.62
32452;BME280;45528;52.102;5.242;2023-02-13T04:47:27;103308.99999999999;;;14.04;52.61
32452;BME280;45528;52.102;5.242;2023-02-13T04:49:03;103308.99999999999;;;14.03;52.76
32452;BME280;45528;52.102;5.242;2023-02-13T04:52:15;103307.0;;;14.15;52.54
32452;BME280;45528;52.102;5.242;2023-02-13T04:53:52;103309.99999999999;;;14.18;52.25
32452;BME280;45528;52.102;5.242;2023-02-13T04:55:28;103306.0;;;13.72;52.72
32452;BME280;45528;52.102;5.242;2023-02-13T04:58:41;103302.0;;;14.1;52.45
32452;BME280;45528;52.102;5.242;2023-02-13T05:00:18;103299.0;;;14.01;52.8
32452;BME280;45528;52.102;5.242;2023-02-13T05:01:55;103296.0;;;14.06;52.86
32452;BME280;45528;52.102;5.242;2023-02-13T05:03:31;103296.0;;;14.04;52.92
32452;BME280;45528;52.102;5.242;2023-02-13T05:06:44;103286.99999999999;;;13.87;53.3
32452;BME280;45528;52.102;5.242;2023-02-13T05:08:20;103286.99999999999;;;14.01;52.76
32452;BME280;45528;52.102;5.242;2023-02-13T05:09:56;103289.00000000001;;;14.09;52.54
32452;BME280;45528;52.102;5.242;2023-02-13T05:13:08;103292.0;;;14.12;52.63
32452;BME280;45528;52.102;5.242;2023-02-13T05:14:45;103291.00000000001;;;14.05;52.8
32452;BME280;45528;52.102;5.242;2023-02-13T05:16:21;103294.0;;;14.09;52.93
32452;BME280;45528;52.102;5.242;2023-02-13T05:19:33;103294.0;;;14.18;52.64
32452;BME280;45528;52.102;5.242;2023-02-13T05:23:31;103288.00000000001;;;14.07;52.89
32452;BME280;45528;52.102;5.242;2023-02-13T05:25:07;103290.00000000001;;;14.09;52.66
32452;BME280;45528;52.102;5.242;2023-02-13T05:26:44;103283.0;;;14.08;52.69
32452;BME280;45528;52.102;5.242;2023-02-13T05:31:01;103282.0;;;14.06;52.79
32452;BME280;45528;52.102;5.242;2023-02-13T05:34:14;103282.0;;;14.04;52.98
32452;BME280;45528;52.102;5.242;2023-02-13T05:35:51;103284.99999999999;;;14.15;53.06
32452;BME280;45528;52.102;5.242;2023-02-13T05:37:27;103284.99999999999;;;14.07;52.94
32452;BME280;45528;52.102;5.242;2023-02-13T05:40:39;103284.99999999999;;;14.09;53.25
32452;BME280;45528;52.102;5.242;2023-02-13T05:42:15;103288.00000000001;;;14.01;53.34
32452;BME280;45528;52.102;5.242;2023-02-13T05:43:51;103282.0;;;14.04;53.16
32452;BME280;45528;52.102;5.242;2023-02-13T05:45:27;103282.0;;;14.09;52.95
32452;BME280;45528;52.102;5.242;2023-02-13T05:48:40;103283.99999999999;;;13.98;53.44
32452;BME280;45528;52.102;5.242;2023-02-13T05:50:16;103283.0;;;13.81;53.42
32452;BME280;45528;52.102;5.242;2023-02-13T05:51:52;103289.00000000001;;;14.05;53.41
32452;BME280;45528;52.102;5.242;2023-02-13T05:55:05;103283.99999999999;;;13.99;53.41
32452;BME280;45528;52.102;5.242;2023-02-13T05:56:42;103283.0;;;14.15;53.03
32452;BME280;45528;52.102;5.242;2023-02-13T05:58:19;103286.99999999999;;;14.13;53.01
32452;BME280;45528;52.102;5.242;2023-02-13T06:01:32;103284.99999999999;;;14.08;53.14
32452;BME280;45528;52.102;5.242;2023-02-13T06:03:09;103284.99999999999;;;14.07;53.23
32452;BME280;45528;52.102;5.242;2023-02-13T06:04:45;103288.00000000001;;;14.15;53.11
32452;BME280;45528;52.102;5.242;2023-02-13T06:06:22;103286.99999999999;;;14.13;53.24
32452;BME280;45528;52.102;5.242;2023-02-13T06:09:34;103283.99999999999;;;14.1;53.58
32452;BME280;45528;52.102;5.242;2023-02-13T06:11:10;103292.0;;;14.18;53.04
32452;BME280;45528;52.102;5.242;2023-02-13T06:12:46;103290.00000000001;;;14.18;53.01
32452;BME280;45528;52.102;5.242;2023-02-13T06:15:59;103291.00000000001;;;14.18;53.11
32452;BME280;45528;52.102;5.242;2023-02-13T06:17:35;103291.00000000001;;;14.06;53.16
32452;BME280;45528;52.102;5.242;2023-02-13T06:19:11;103288.00000000001;;;14.01;53.47
32452;BME280;45528;52.102;5.242;2023-02-13T06:22:23;103292.0;;;13.99;53.61
32452;BME280;45528;52.102;5.242;2023-02-13T06:23:59;103289.00000000001;;;13.89;53.99
32452;BME280;45528;52.102;5.242;2023-02-13T06:25:36;103290.00000000001;;;13.94;53.97
32452;BME280;45528;52.102;5.242;2023-02-13T06:27:13;103290.00000000001;;;14.05;53.79
32452;BME280;45528;52.102;5.242;2023-02-13T06:30:25;103288.00000000001;;;14.0;54.09
32452;BME280;45528;52.102;5.242;2023-02-13T06:32:01;103294.0;;;14.01;53.76
32452;BME280;45528;52.102;5.242;2023-02-13T06:33:38;103297.0;;;14.1;53.82
32452;BME280;45528;52.102;5.242;2023-02-13T06:36:52;103298.0;;;14.05;53.81
32452;BME280;45528;52.102;5.242;2023-02-13T06:38:28;103294.0;;;14.11;53.76
32452;BME280;45528;52.102;5.242;2023-02-13T06:40:06;103290.00000000001;;;14.05;53.73
32452;BME280;45528;52.102;5.242;2023-02-13T06:43:19;103293.0;;;14.02;53.92
32452;BME280;45528;52.102;5.242;2023-02-13T06:44:55;103292.0;;;14.11;53.91
32452;BME280;45528;52.102;5.242;2023-02-13T06:46:31;103292.0;;;14.16;53.67
32452;BME280;45528;52.102;5.242;2023-02-13T06:49:43;103291.00000000001;;;14.2;53.43
32452;BME280;45528;52.102;5.242;2023-02-13T06:51:19;103292.0;;;14.26;53.37
32452;BME280;45528;52.102;5.242;2023-02-13T06:52:56;103294.0;;;14.19;53.42
32452;BME280;45528;52.102;5.242;2023-02-13T06:54:32;103291.00000000001;;;14.24;53.84
32452;BME280;45528;52.102;5.242;2023-02-13T06:57:46;103295.0;;;14.22;53.49
32452;BME280;45528;52.102;5.242;2023-02-13T06:59:22;103290.00000000001;;;14.2;53.61
32452;BME280;45528;52.102;5.242;2023-02-13T07:00:59;103295.0;;;14.29;53.44
32452;BME280;45528;52.102;5.242;2023-02-13T07:04:12;103297.0;;;14.31;53.28
32452;BME280;45528;52.102;5.242;2023-02-13T07:05:51;103297.0;;;14.27;53.42
32452;BME280;45528;52.102;5.242;2023-02-13T07:07:31;103298.0;;;14.25;53.47
32452;BME280;45528;52.102;5.242;2023-02-13T07:09:07;103299.0;;;14.23;53.74
32452;BME280;45528;52.102;5.242;2023-02-13T07:12:20;103292.0;;;14.1;53.89
32452;BME280;45528;52.102;5.242;2023-02-13T07:13:56;103296.0;;;14.25;53.53
32452;BME280;45528;52.102;5.242;2023-02-13T07:15:33;103296.0;;;13.95;54.27
32452;BME280;45528;52.102;5.242;2023-02-13T07:18:46;103297.0;;;14.07;54.14
32452;BME280;45528;52.102;5.242;2023-02-13T07:20:23;103296.0;;;14.17;54.08
32452;BME280;45528;52.102;5.242;2023-02-13T07:22:00;103298.0;;;14.12;53.95
32452;BME280;45528;52.102;5.242;2023-02-13T07:25:12;103294.0;;;14.06;53.96
32452;BME280;45528;52.102;5.242;2023-02-13T07:26:48;103294.0;;;14.08;53.9
32452;BME280;45528;52.102;5.242;2023-02-13T07:28:25;103292.0;;;13.99;54.15
32452;BME280;45528;52.102;5.242;2023-02-13T07:30:02;103293.0;;;13.97;54.34
32452;BME280;45528;52.102;5.242;2023-02-13T07:33:15;103299.0;;;14.0;54.28
32452;BME280;45528;52.102;5.242;2023-02-13T07:34:51;103302.0;;;14.0;54.31
32452;BME280;45528;52.102;5.242;2023-02-13T07:36:27;103303.0;;;13.92;54.57
32452;BME280;45528;52.102;5.242;2023-02-13T07:39:40;103300.0;;;13.88;54.57
32452;BME280;45528;52.102;5.242;2023-02-13T07:41:17;103300.0;;;13.82;54.88
32452;BME280;45528;52.102;5.242;2023-02-13T07:42:53;103304.0;;;13.85;54.73
32452;BME280;45528;52.102;5.242;2023-02-13T07:46:05;103306.0;;;13.84;54.99
32452;BME280;45528;52.102;5.242;2023-02-13T07:47:41;103314.00000000001;;;13.76;55.14
32452;BME280;45528;52.102;5.242;2023-02-13T07:49:17;103315.00000000001;;;13.78;55.15
32452;BME280;45528;52.102;5.242;2023-02-13T07:52:36;103317.0;;;13.75;55.33
32452;BME280;45528;52.102;5.242;2023-02-13T07:54:12;103317.0;;;13.83;55.17
32452;BME280;45528;52.102;5.242;2023-02-13T07:55:49;103320.0;;;13.87;55.14
32452;BME280;45528;52.102;5.242;2023-02-13T07:57:25;103319.0;;;13.94;54.96
32452;BME280;45528;52.102;5.242;2023-02-13T08:00:38;103324.0;;;13.87;55.23
32452;BME280;45528;52.102;5.242;2023-02-13T08:02:14;103327.0;;;13.99;54.85
32452;BME280;45528;52.102;5.242;2023-02-13T08:03:51;103338.00000000001;;;14.11;54.48
32452;BME280;45528;52.102;5.242;2023-02-13T08:07:05;103339.00000000001;;;14.1;54.44
32452;BME280;45528;52.102;5.242;2023-02-13T08:08:41;103342.0;;;14.03;54.84
32452;BME280;45528;52.102;5.242;2023-02-13T08:12:09;103342.0;;;14.01;54.89
32452;BME280;45528;52.102;5.242;2023-02-13T08:13:52;103345.0;;;14.07;54.95
32452;BME280;45528;52.102;5.242;2023-02-13T08:15:28;103347.0;;;14.19;54.78
32452;BME280;45528;52.102;5.242;2023-02-13T08:17:04;103351.0;;;14.22;54.63
32452;BME280;45528;52.102;5.242;2023-02-13T08:18:40;103345.0;;;14.39;54.19
32452;BME280;45528;52.102;5.242;2023-02-13T08:20:16;103342.0;;;14.09;55.0
32452;BME280;45528;52.102;5.242;2023-02-13T08:23:30;103342.0;;;14.19;54.89
32452;BME280;45528;52.102;5.242;2023-02-13T08:25:07;103346.0;;;14.4;54.31
32452;BME280;45528;52.102;5.242;2023-02-13T08:26:43;103343.0;;;14.38;54.38
32452;BME280;45528;52.102;5.242;2023-02-13T08:29:55;103342.0;;;14.46;54.26
32452;BME280;45528;52.102;5.242;2023-02-13T08:31:33;103345.0;;;14.34;54.56
32452;BME280;45528;52.102;5.242;2023-02-13T08:33:09;103345.0;;;14.54;54.13
32452;BME280;45528;52.102;5.242;2023-02-13T08:36:21;103342.0;;;14.37;54.53
32452;BME280;45528;52.102;5.242;2023-02-13T08:38:01;103341.00000000001;;;14.63;53.85
32452;BME280;45528;52.102;5.242;2023-02-13T08:39:37;103342.0;;;14.52;54.33
32452;BME280;45528;52.102;5.242;2023-02-13T08:41:14;103339.00000000001;;;14.56;54.2
32452;BME280;45528;52.102;5.242;2023-02-13T08:44:27;103342.0;;;14.4;54.61
32452;BME280;45528;52.102;5.242;2023-02-13T08:46:03;103342.0;;;14.51;54.72
32452;BME280;45528;52.102;5.242;2023-02-13T08:47:40;103342.0;;;14.44;54.83
32452;BME280;45528;52.102;5.242;2023-02-13T08:50:53;103338.00000000001;;;14.66;54.46
32452;BME280;45528;52.102;5.242;2023-02-13T08:52:29;103336.99999999999;;;14.8;54.12
32452;BME280;45528;52.102;5.242;2023-02-13T08:54:05;103340.00000000001;;;14.94;53.87
32452;BME280;45528;52.102;5.242;2023-02-13T08:57:17;103342.0;;;14.93;53.92
32452;BME280;45528;52.102;5.242;2023-02-13T08:58:54;103348.0;;;14.82;54.07
32452;BME280;45528;52.102;5.242;2023-02-13T09:00:31;103343.0;;;15.12;53.46
32452;BME280;45528;52.102;5.242;2023-02-13T09:02:12;103345.0;;;15.22;53.1
32452;BME280;45528;52.102;5.242;2023-02-13T09:05:25;103348.0;;;15.32;52.76
32452;BME280;45528;52.102;5.242;2023-02-13T09:07:02;103349.0;;;15.5;52.82
32452;BME280;45528;52.102;5.242;2023-02-13T09:08:39;103347.0;;;15.58;52.55
32452;BME280;45528;52.102;5.242;2023-02-13T09:11:55;103347.0;;;15.49;52.42
32452;BME280;45528;52.102;5.242;2023-02-13T09:13:33;103345.0;;;15.82;52.01
32452;BME280;45528;52.102;5.242;2023-02-13T09:15:11;103344.0;;;15.52;52.52
32452;BME280;45528;52.102;5.242;2023-02-13T09:16:47;103349.0;;;15.64;52.22
32452;BME280;45528;52.102;5.242;2023-02-13T09:19:59;103352.0;;;15.65;52.33
32452;BME280;45528;52.102;5.242;2023-02-13T09:21:35;103352.0;;;15.66;52.35
32452;BME280;45528;52.102;5.242;2023-02-13T09:23:11;103350.0;;;15.64;52.3
32452;BME280;45528;52.102;5.242;2023-02-13T09:26:24;103347.0;;;15.75;52.33
32452;BME280;45528;52.102;5.242;2023-02-13T09:28:00;103344.0;;;15.87;52.05
32452;BME280;45528;52.102;5.242;2023-02-13T09:29:36;103346.0;;;15.68;52.5
32452;BME280;45528;52.102;5.242;2023-02-13T09:32:53;103343.0;;;15.6;52.66
32452;BME280;45528;52.102;5.242;2023-02-13T09:34:30;103343.0;;;15.62;52.73
32452;BME280;45528;52.102;5.242;2023-02-13T09:36:07;103344.0;;;15.87;52.35
32452;BME280;45528;52.102;5.242;2023-02-13T09:37:45;103346.0;;;15.82;52.38
32452;BME280;45528;52.102;5.242;2023-02-13T09:41:00;103344.0;;;16.16;51.38
32452;BME280;45528;52.102;5.242;2023-02-13T09:42:38;103350.0;;;16.31;50.79
32452;BME280;45528;52.102;5.242;2023-02-13T09:44:35;103348.0;;;16.41;50.69
32452;BME280;45528;52.102;5.242;2023-02-13T09:46:16;103348.0;;;16.25;50.94
32452;BME280;45528;52.102;5.242;2023-02-13T09:49:35;103347.0;;;16.11;50.92
32452;BME280;45528;52.102;5.242;2023-02-13T09:51:15;103345.0;;;16.25;50.83
32452;BME280;45528;52.102;5.242;2023-02-13T09:52:54;103352.0;;;16.34;50.87
32452;BME280;45528;52.102;5.242;2023-02-13T09:54:32;103342.0;;;16.5;50.57
32452;BME280;45528;52.102;5.242;2023-02-13T09:57:55;103342.0;;;16.36;50.52
32452;BME280;45528;52.102;5.242;2023-02-13T09:59:44;103345.0;;;16.47;50.22
32452;BME280;45528;52.102;5.242;2023-02-13T10:01:28;103343.0;;;16.68;49.69
32452;BME280;45528;52.102;5.242;2023-02-13T10:03:27;103341.00000000001;;;16.52;50.07
32452;BME280;45528;52.102;5.242;2023-02-13T10:05:15;103343.0;;;16.7;50.07
32452;BME280;45528;52.102;5.242;2023-02-13T10:07:07;103343.0;;;16.84;49.62
32452;BME280;45528;52.102;5.242;2023-02-13T10:10:49;103346.0;;;16.61;49.91
32452;BME280;45528;52.102;5.242;2023-02-13T10:12:42;103345.0;;;16.71;49.84
32452;BME280;45528;52.102;5.242;2023-02-13T10:14:26;103343.0;;;16.72;49.87
32452;BME280;45528;52.102;5.242;2023-02-13T10:16:09;103346.0;;;16.75;49.68
32452;BME280;45528;52.102;5.242;2023-02-13T10:17:53;103348.0;;;16.91;49.28
32452;BME280;45528;52.102;5.242;2023-02-13T10:19:35;103344.0;;;16.96;49.04
32452;BME280;45528;52.102;5.242;2023-02-13T10:23:01;103346.0;;;16.75;49.61
32452;BME280;45528;52.102;5.242;2023-02-13T10:24:48;103344.0;;;16.84;49.21
32452;BME280;45528;52.102;5.242;2023-02-13T10:26:43;103344.0;;;16.64;49.4
32452;BME280;45528;52.102;5.242;2023-02-13T10:28:28;103342.0;;;16.84;49.41
32452;BME280;45528;52.102;5.242;2023-02-13T10:30:17;103342.0;;;17.0;48.97
32452;BME280;45528;52.102;5.242;2023-02-13T10:33:42;103333.0;;;17.28;48.53
32452;BME280;45528;52.102;5.242;2023-02-13T10:35:26;103328.0;;;17.2;48.48
32452;BME280;45528;52.102;5.242;2023-02-13T10:37:11;103331.0;;;17.27;48.45
32452;BME280;45528;52.102;5.242;2023-02-13T10:38:59;103333.0;;;17.31;48.12
32452;BME280;45528;52.102;5.242;2023-02-13T10:40:39;103329.0;;;17.36;47.57
32452;BME280;45528;52.102;5.242;2023-02-13T10:44:22;103332.0;;;17.47;48.06
32452;BME280;45528;52.102;5.242;2023-02-13T10:46:14;103330.0;;;17.34;48.39
32452;BME280;45528;52.102;5.242;2023-02-13T10:48:04;103328.0;;;17.37;48.0
32452;BME280;45528;52.102;5.242;2023-02-13T10:49:59;103326.0;;;17.25;48.17
32452;BME280;45528;52.102;5.242;2023-02-13T10:51:42;103323.0;;;17.21;47.97
32452;BME280;45528;52.102;5.242;2023-02-13T10:53:33;103328.0;;;17.32;48.21
32452;BME280;45528;52.102;5.242;2023-02-13T10:55:24;103327.0;;;17.25;48.22
32452;BME280;45528;52.102;5.242;2023-02-13T10:57:16;103329.0;;;17.36;48.27
32452;BME280;45528;52.102;5.242;2023-02-13T11:00:56;103324.0;;;17.31;48.0
32452;BME280;45528;52.102;5.242;2023-02-13T11:02:36;103325.0;;;17.36;48.07
32452;BME280;45528;52.102;5.242;2023-02-13T11:04:15;103322.0;;;17.43;47.93
32452;BME280;45528;52.102;5.242;2023-02-13T11:05:54;103326.0;;;17.45;47.89
32452;BME280;45528;52.102;5.242;2023-02-13T11:09:12;103323.0;;;17.53;47.78
32452;BME280;45528;52.102;5.242;2023-02-13T11:10:48;103319.0;;;17.62;47.66
32452;BME280;45528;52.102;5.242;2023-02-13T11:12:27;103317.0;;;17.86;47.53
32452;BME280;45528;52.102;5.242;2023-02-13T11:14:09;103316.00000000001;;;17.75;46.95
32452;BME280;45528;52.102;5.242;2023-02-13T11:17:39;103316.00000000001;;;17.66;47.06
32452;BME280;45528;52.102;5.242;2023-02-13T11:19:19;103317.0;;;17.68;47.17
32452;BME280;45528;52.102;5.242;2023-02-13T11:20:59;103314.00000000001;;;17.7;47.11